Time;durP1;ratioP1;P1;durP2;ratioP2;P2;SDS_P1;SDS_P2;PMS_P1;PMS_P2;Temp;Humidity;BMP_temperature;BMP_pressure;BME280_temperature;BME280_humidity;BME280_pressure;Samples;Min_cycle;Max_cycle;Signal;HPM_P1;HPM_P2
2023/05/24 00:02:15;;;;;;;9.57;3.33;;;13.00;99.90;;;;;;5093708;28;20279;-78
2023/05/24 00:04:48;;;;;;;6.15;3.10;;;13.10;99.90;;;;;;5091972;28;20238;-77
2023/05/24 00:07:19;;;;;;;4.72;3.30;;;13.20;99.90;;;;;;5092295;28;20215;-78
2023/05/24 00:09:50;;;;;;;8.10;3.10;;;13.20;99.90;;;;;;5093806;28;20561;-79
2023/05/24 00:12:21;;;;;;;6.82;3.40;;;13.20;99.90;;;;;;5093005;28;20200;-77
2023/05/24 00:14:52;;;;;;;6.65;3.40;;;13.20;99.90;;;;;;5092952;28;20196;-77
2023/05/24 00:17:23;;;;;;;8.75;3.88;;;13.40;99.90;;;;;;5093856;28;20648;-77
2023/05/24 00:19:57;;;;;;;7.03;3.80;;;13.50;99.90;;;;;;5074197;28;20200;-78
2023/05/24 00:22:28;;;;;;;11.15;4.05;;;13.60;99.90;;;;;;5078436;28;20554;-77
2023/05/24 00:24:59;;;;;;;10.15;3.78;;;13.70;99.90;;;;;;5094084;28;20188;-77
2023/05/24 00:27:30;;;;;;;6.45;3.70;;;13.80;99.90;;;;;;5088602;28;20215;-79
2023/05/24 00:30:01;;;;;;;13.57;4.10;;;13.90;99.90;;;;;;5093294;28;20189;-77
2023/05/24 00:32:32;;;;;;;6.80;3.00;;;14.00;99.90;;;;;;5084632;28;20655;-77
2023/05/24 00:35:05;;;;;;;6.57;3.33;;;14.20;99.90;;;;;;5091327;28;20207;-79
2023/05/24 00:37:36;;;;;;;7.85;3.15;;;14.30;99.90;;;;;;5084345;28;20200;-78
2023/05/24 00:40:08;;;;;;;9.98;3.53;;;14.40;99.90;;;;;;5093652;28;20190;-78
2023/05/24 00:42:39;;;;;;;7.40;3.03;;;14.50;99.90;;;;;;5092494;28;20224;-78
2023/05/24 00:45:11;;;;;;;6.05;3.00;;;14.60;99.90;;;;;;5088699;28;20216;-79
2023/05/24 00:47:43;;;;;;;5.10;2.53;;;14.70;99.90;;;;;;5092967;28;20212;-78
2023/05/24 00:50:16;;;;;;;5.57;2.70;;;14.70;99.90;;;;;;5092256;28;20200;-78
2023/05/24 00:52:49;;;;;;;5.80;2.85;;;14.80;99.90;;;;;;5092360;28;20569;-78
2023/05/24 00:55:20;;;;;;;7.32;2.83;;;14.90;99.90;;;;;;5092840;28;20207;-78
2023/05/24 00:57:53;;;;;;;7.47;3.28;;;15.00;99.90;;;;;;5092357;28;20196;-78
2023/05/24 01:00:25;;;;;;;8.20;3.80;;;15.10;99.90;;;;;;5090835;28;20274;-78
2023/05/24 01:02:56;;;;;;;7.20;2.90;;;15.30;99.90;;;;;;5090730;28;20219;-78
2023/05/24 01:05:34;;;;;;;7.70;2.92;;;15.40;99.90;;;;;;5089144;28;20228;-79
2023/05/24 01:08:14;;;;;;;3.72;2.63;;;15.50;99.90;;;;;;5089481;28;20239;-78
2023/05/24 01:10:55;;;;;;;7.93;2.88;;;15.60;99.90;;;;;;5093520;28;20188;-79
2023/05/24 01:13:32;;;;;;;5.03;2.60;;;15.80;99.90;;;;;;5090815;28;20203;-81
2023/05/24 01:16:09;;;;;;;5.63;2.80;;;15.90;99.90;;;;;;5092084;28;20681;-80
2023/05/24 01:18:45;;;;;;;7.15;3.17;;;16.00;99.90;;;;;;5093145;28;20291;-80
2023/05/24 01:21:37;;;;;;;5.55;2.67;;;16.00;99.90;;;;;;5092863;28;20208;-80
2023/05/24 01:24:19;;;;;;;8.32;3.17;;;16.10;99.90;;;;;;5092702;28;20196;-79
2023/05/24 01:27:05;;;;;;;11.40;3.28;;;16.20;99.90;;;;;;5090564;28;20223;-81
2023/05/24 01:29:37;;;;;;;5.45;2.90;;;16.20;99.90;;;;;;5091052;28;20200;-83
2023/05/24 01:32:09;;;;;;;6.78;2.70;;;16.40;99.90;;;;;;5089573;28;20204;-82
2023/05/24 01:34:40;;;;;;;8.18;3.03;;;16.50;99.90;;;;;;5092534;28;20196;-82
2023/05/24 01:37:11;;;;;;;4.00;2.28;;;16.60;99.90;;;;;;5090637;28;20192;-82
2023/05/24 01:39:42;;;;;;;6.15;2.95;;;16.70;99.90;;;;;;5089576;28;20196;-81
2023/05/24 01:42:25;;;;;;;4.13;2.15;;;16.80;99.90;;;;;;5088052;28;20224;-81
2023/05/24 01:45:06;;;;;;;5.43;2.22;;;16.90;99.90;;;;;;5092350;28;20238;-83
2023/05/24 01:47:48;;;;;;;6.70;2.55;;;17.00;99.90;;;;;;5093155;28;20224;-80
2023/05/24 01:50:24;;;;;;;5.05;2.55;;;17.00;99.90;;;;;;5079040;28;20199;-81
2023/05/24 01:52:58;;;;;;;5.20;2.30;;;17.00;99.90;;;;;;5083550;28;20670;-81
2023/05/24 01:55:31;;;;;;;6.10;2.72;;;17.00;99.90;;;;;;5094413;28;20207;-81
2023/05/24 01:58:06;;;;;;;5.35;2.42;;;17.00;99.90;;;;;;5094083;28;20226;-84
2023/05/24 02:00:39;;;;;;;5.80;2.67;;;17.10;99.90;;;;;;5095728;28;20191;-84
2023/05/24 02:03:10;;;;;;;8.43;2.80;;;17.20;99.90;;;;;;5092769;28;21594;-82
2023/05/24 02:05:43;;;;;;;7.10;2.90;;;17.20;99.90;;;;;;5095163;28;20227;-81
2023/05/24 02:08:14;;;;;;;7.72;2.55;;;17.40;99.90;;;;;;5094419;28;20586;-82
2023/05/24 02:10:45;;;;;;;7.20;3.22;;;17.50;99.90;;;;;;5094650;28;20196;-82
2023/05/24 02:13:18;;;;;;;6.57;3.40;;;17.60;99.90;;;;;;5094893;28;20690;-81
2023/05/24 02:15:50;;;;;;;7.15;2.85;;;17.60;99.90;;;;;;5086943;28;20192;-82
2023/05/24 02:18:21;;;;;;;6.63;2.80;;;17.70;99.90;;;;;;5093935;28;20208;-82
2023/05/24 02:20:52;;;;;;;6.88;2.65;;;17.80;99.90;;;;;;5093220;28;20192;-81
2023/05/24 02:23:23;;;;;;;5.88;2.92;;;18.00;99.90;;;;;;5096210;28;20565;-81
2023/05/24 02:25:54;;;;;;;6.13;2.40;;;18.10;99.90;;;;;;5095297;28;20581;-82
2023/05/24 02:28:30;;;;;;;5.53;2.80;;;18.10;99.90;;;;;;5096479;28;20218;-81
2023/05/24 02:31:02;;;;;;;5.65;2.38;;;18.10;99.90;;;;;;5093870;28;20283;-83
2023/05/24 02:33:34;;;;;;;4.00;2.50;;;18.20;99.90;;;;;;5095503;28;20236;-83
2023/05/24 02:36:06;;;;;;;6.72;2.75;;;18.30;99.90;;;;;;5091263;28;20208;-81
2023/05/24 02:38:38;;;;;;;6.82;3.55;;;18.50;99.90;;;;;;5096220;28;20279;-81
2023/05/24 02:41:10;;;;;;;6.65;3.20;;;18.50;99.90;;;;;;5094663;28;20220;-81
2023/05/24 02:43:43;;;;;;;5.95;2.65;;;18.50;99.90;;;;;;5095075;28;20206;-83
2023/05/24 02:46:15;;;;;;;7.50;2.70;;;18.50;99.90;;;;;;5094155;28;20578;-80
2023/05/24 02:48:48;;;;;;;6.78;2.50;;;18.60;99.90;;;;;;5091542;28;20216;-78
2023/05/24 02:51:19;;;;;;;7.53;2.60;;;18.70;99.90;;;;;;5092434;28;20192;-79
2023/05/24 02:53:50;;;;;;;7.47;3.15;;;18.80;99.90;;;;;;5091284;28;20682;-80
2023/05/24 02:56:21;;;;;;;5.65;2.90;;;18.90;99.90;;;;;;5087082;28;20670;-84
2023/05/24 02:58:55;;;;;;;8.23;3.25;;;18.90;99.90;;;;;;5093852;28;20283;-84
2023/05/24 03:01:26;;;;;;;3.83;2.40;;;18.90;99.90;;;;;;5091569;28;20256;-82
2023/05/24 03:04:00;;;;;;;8.02;2.90;;;18.90;99.90;;;;;;5090696;28;20235;-85
2023/05/24 03:06:31;;;;;;;4.90;2.53;;;19.00;99.90;;;;;;5095065;28;20261;-83
2023/05/24 03:09:02;;;;;;;5.85;2.65;;;19.10;99.90;;;;;;5089010;28;20279;-84
2023/05/24 03:11:33;;;;;;;7.75;2.92;;;19.10;99.90;;;;;;5095197;28;20279;-84
2023/05/24 03:14:08;;;;;;;5.93;2.95;;;19.10;99.90;;;;;;5094295;28;20568;-83
2023/05/24 03:16:40;;;;;;;4.63;2.33;;;19.20;99.90;;;;;;5087553;28;20188;-81
2023/05/24 03:19:11;;;;;;;8.68;2.55;;;19.10;99.90;;;;;;5080929;28;20197;-83
2023/05/24 03:21:42;;;;;;;8.95;2.30;;;19.10;99.90;;;;;;5075283;28;20189;-85
2023/05/24 03:24:14;;;;;;;11.32;2.92;;;19.10;99.90;;;;;;5093185;28;20279;-85
2023/05/24 03:26:45;;;;;;;8.13;2.67;;;19.20;99.90;;;;;;5095022;28;20560;-84
2023/05/24 03:29:18;;;;;;;6.80;2.92;;;19.20;99.90;;;;;;5093837;28;20543;-87
2023/05/24 03:31:49;;;;;;;7.75;2.60;;;19.20;99.90;;;;;;5093020;28;20203;-88
2023/05/24 03:34:20;;;;;;;5.10;2.22;;;19.20;99.90;;;;;;5094728;28;20200;-82
2023/05/24 03:36:51;;;;;;;5.78;2.38;;;19.30;99.90;;;;;;5094496;28;20194;-87
2023/05/24 03:39:22;;;;;;;6.55;2.22;;;19.30;99.90;;;;;;5083314;28;20215;-86
2023/05/24 03:41:53;;;;;;;8.13;2.38;;;19.40;99.90;;;;;;5081335;28;20188;-88
2023/05/24 03:44:26;;;;;;;7.15;2.50;;;19.40;99.90;;;;;;5095193;28;20227;-85
2023/05/24 03:46:57;;;;;;;5.88;2.10;;;19.40;99.90;;;;;;5093013;28;20196;-84
2023/05/24 03:49:29;;;;;;;3.00;1.58;;;19.40;99.90;;;;;;5093945;28;20197;-84
2023/05/24 03:52:00;;;;;;;4.75;1.67;;;19.30;99.90;;;;;;5094812;28;20189;-85
2023/05/24 03:54:31;;;;;;;3.50;1.70;;;19.30;99.90;;;;;;5094694;28;20195;-87
2023/05/24 03:57:02;;;;;;;2.60;1.52;;;19.30;99.90;;;;;;5092360;28;20196;-91
2023/05/24 03:59:35;;;;;;;2.90;1.42;;;19.40;99.90;;;;;;5094387;28;20194;-85
2023/05/24 04:02:06;;;;;;;8.85;1.65;;;19.40;99.90;;;;;;5093298;28;20204;-87
2023/05/24 04:04:38;;;;;;;3.25;1.45;;;19.50;99.90;;;;;;5092006;28;20236;-87
2023/05/24 04:07:14;;;;;;;8.43;1.98;;;19.50;99.90;;;;;;5094365;28;20218;-85
2023/05/24 04:09:45;;;;;;;3.78;1.60;;;19.50;99.90;;;;;;5094875;28;20188;-87
2023/05/24 04:12:16;;;;;;;5.35;1.90;;;19.50;99.90;;;;;;5094654;28;20195;-86
2023/05/24 04:14:50;;;;;;;3.50;1.65;;;19.50;99.90;;;;;;5078836;28;20189;-87
2023/05/24 04:17:23;;;;;;;8.38;1.90;;;19.50;99.90;;;;;;5093841;28;20629;-85
2023/05/24 04:19:54;;;;;;;6.15;1.85;;;19.50;99.90;;;;;;5093499;28;20192;-86
2023/05/24 04:22:25;;;;;;;4.65;1.52;;;19.50;99.90;;;;;;5092760;28;20196;-86
2023/05/24 04:24:56;;;;;;;4.47;1.52;;;19.60;99.90;;;;;;5092642;28;20202;-86
2023/05/24 04:27:29;;;;;;;2.53;1.25;;;19.50;99.90;;;;;;5090873;28;20216;-85
2023/05/24 04:30:02;;;;;;;5.95;1.67;;;19.50;99.90;;;;;;5086905;28;20285;-87
2023/05/24 04:32:33;;;;;;;5.80;1.30;;;19.50;99.90;;;;;;5092942;28;20192;-84
2023/05/24 04:35:04;;;;;;;4.45;1.40;;;19.50;99.90;;;;;;5093808;28;20204;-85
2023/05/24 04:37:36;;;;;;;5.25;1.38;;;19.50;99.90;;;;;;5093943;28;20694;-84
2023/05/24 04:40:09;;;;;;;4.45;1.42;;;19.50;99.90;;;;;;5091389;28;21865;-85
2023/05/24 04:42:40;;;;;;;3.22;1.52;;;19.40;99.90;;;;;;5090794;28;20210;-87
2023/05/24 04:45:14;;;;;;;4.32;1.45;;;19.40;99.90;;;;;;5083400;28;20196;-84
2023/05/24 04:47:45;;;;;;;2.53;1.60;;;19.40;99.90;;;;;;5093770;28;20220;-88
2023/05/24 04:50:19;;;;;;;3.88;1.50;;;19.40;99.90;;;;;;5093368;28;20194;-87
2023/05/24 04:52:50;;;;;;;1.90;1.50;;;19.50;99.90;;;;;;5089154;28;20208;-84
2023/05/24 04:55:21;;;;;;;4.72;1.60;;;19.50;99.90;;;;;;5093666;28;20206;-87
2023/05/24 04:57:52;;;;;;;7.00;1.40;;;19.50;99.90;;;;;;5090482;28;20207;-84
2023/05/24 05:00:26;;;;;;;3.88;1.35;;;19.50;99.90;;;;;;5080099;28;20188;-86
2023/05/24 05:02:57;;;;;;;5.25;1.48;;;19.40;99.90;;;;;;5087661;28;20203;-84
2023/05/24 05:05:27;;;;;;;4.70;1.77;;;19.40;99.90;;;;;;5093462;28;20249;-86
2023/05/24 05:07:58;;;;;;;2.85;1.50;;;19.40;99.90;;;;;;5092016;28;20214;-86
2023/05/24 05:15:37;;;;;;;3.38;1.50;;;19.40;99.90;;;;;;4970746;23;20228;-83
2023/05/24 05:18:10;;;;;;;4.38;1.42;;;19.40;99.90;;;;;;4953771;28;20216;-75
2023/05/24 05:20:41;;;;;;;3.10;1.50;;;19.30;99.90;;;;;;4961217;28;20197;-75
2023/05/24 05:23:13;;;;;;;3.08;1.50;;;19.30;99.90;;;;;;4974629;28;20576;-75
2023/05/24 05:25:44;;;;;;;4.38;1.55;;;19.20;99.90;;;;;;4950590;28;20196;-75
2023/05/24 05:28:15;;;;;;;4.28;1.50;;;19.20;99.90;;;;;;4966288;28;20227;-75
2023/05/24 05:30:46;;;;;;;4.93;1.70;;;19.10;99.90;;;;;;4954893;28;20213;-76
2023/05/24 05:33:19;;;;;;;5.28;1.30;;;19.00;99.90;;;;;;4963574;28;21723;-75
2023/05/24 05:35:50;;;;;;;4.07;1.50;;;19.00;99.90;;;;;;4966558;28;20204;-75
2023/05/24 05:38:21;;;;;;;4.40;1.50;;;19.00;99.90;;;;;;4946275;29;20215;-75
2023/05/24 05:40:52;;;;;;;4.50;1.52;;;19.00;99.90;;;;;;4959969;28;20207;-75
2023/05/24 05:43:23;;;;;;;3.28;1.48;;;19.00;99.90;;;;;;4958114;28;20197;-75
2023/05/24 05:45:55;;;;;;;5.72;1.92;;;19.00;99.90;;;;;;4957174;28;20197;-75
2023/05/24 05:48:28;;;;;;;3.42;2.10;;;19.00;99.90;;;;;;4956243;28;20220;-75
2023/05/24 05:50:59;;;;;;;6.72;1.88;;;19.00;99.90;;;;;;4955142;28;20197;-75
2023/05/24 05:53:30;;;;;;;4.90;2.03;;;19.00;99.90;;;;;;4955118;28;20189;-75
2023/05/24 05:56:01;;;;;;;6.20;2.03;;;19.00;99.90;;;;;;4963583;28;20271;-75
2023/05/24 05:58:32;;;;;;;5.55;1.90;;;19.00;99.90;;;;;;4969346;28;20585;-75
2023/05/24 06:01:03;;;;;;;6.68;2.05;;;19.00;99.90;;;;;;4974106;28;20197;-75
2023/05/24 06:03:36;;;;;;;6.43;2.05;;;19.00;99.90;;;;;;4960991;28;20205;-75
2023/05/24 06:06:08;;;;;;;6.03;2.00;;;19.00;99.90;;;;;;4955096;28;20199;-75
2023/05/24 06:08:39;;;;;;;5.47;2.20;;;18.90;99.90;;;;;;4956790;28;20225;-75
2023/05/24 06:11:10;;;;;;;6.65;2.20;;;18.90;99.90;;;;;;4970592;28;20204;-75
2023/05/24 06:13:41;;;;;;;5.40;2.33;;;18.90;99.90;;;;;;4955240;28;20644;-75
2023/05/24 06:16:13;;;;;;;6.90;2.30;;;18.80;99.90;;;;;;4962467;28;20240;-75
2023/05/24 06:18:46;;;;;;;5.97;2.40;;;18.70;99.90;;;;;;4954342;28;20248;-75
2023/05/24 06:21:17;;;;;;;6.53;2.83;;;18.60;99.90;;;;;;4955038;28;20252;-75
2023/05/24 06:23:48;;;;;;;9.63;2.40;;;18.60;99.90;;;;;;4951886;28;20673;-75
2023/05/24 06:26:20;;;;;;;6.20;2.33;;;18.50;99.90;;;;;;4953538;28;20208;-75
2023/05/24 06:28:51;;;;;;;4.78;2.50;;;18.40;99.90;;;;;;4953945;28;20224;-75
2023/05/24 06:31:22;;;;;;;9.70;2.63;;;18.30;99.90;;;;;;4954881;28;20217;-74
2023/05/24 06:33:55;;;;;;;7.75;2.40;;;18.30;99.90;;;;;;4952489;28;20707;-75
2023/05/24 06:36:26;;;;;;;6.05;2.60;;;18.20;99.90;;;;;;4952480;28;20220;-75
2023/05/24 06:38:57;;;;;;;6.22;2.30;;;18.10;99.90;;;;;;4955369;28;20197;-75
2023/05/24 06:41:29;;;;;;;6.95;2.50;;;18.00;99.90;;;;;;4957062;28;20373;-75
2023/05/24 06:44:00;;;;;;;6.85;2.90;;;17.90;99.90;;;;;;4956736;28;20208;-75
2023/05/24 06:46:31;;;;;;;5.35;2.90;;;17.70;99.90;;;;;;4958440;28;20193;-75
2023/05/24 06:49:04;;;;;;;5.35;2.75;;;17.60;99.90;;;;;;4957292;28;20722;-75
2023/05/24 06:51:35;;;;;;;5.68;2.50;;;17.50;99.90;;;;;;4941302;28;20230;-75
2023/05/24 06:54:06;;;;;;;9.65;3.17;;;17.50;99.90;;;;;;4957866;28;20197;-75
2023/05/24 06:56:37;;;;;;;6.93;2.80;;;17.30;99.90;;;;;;4958106;28;20656;-75
2023/05/24 06:59:09;;;;;;;10.98;4.30;;;17.10;99.90;;;;;;4957266;28;20223;-75
2023/05/24 07:01:41;;;;;;;7.60;3.45;;;17.00;99.90;;;;;;4957433;28;21975;-75
2023/05/24 07:04:14;;;;;;;7.63;3.75;;;16.90;99.90;;;;;;4955550;28;20727;-75
2023/05/24 07:06:45;;;;;;;5.32;3.25;;;16.80;99.90;;;;;;4957029;28;20192;-75
2023/05/24 07:09:19;;;;;;;6.85;3.15;;;16.70;99.90;;;;;;4957098;28;20221;-75
2023/05/24 07:11:51;;;;;;;8.23;4.32;;;16.70;99.90;;;;;;4956948;28;20207;-75
2023/05/24 07:14:22;;;;;;;9.30;5.10;;;16.60;99.90;;;;;;4957749;28;20192;-75
2023/05/24 07:16:56;;;;;;;7.72;4.00;;;16.50;99.90;;;;;;4956349;28;20236;-75
2023/05/24 07:19:29;;;;;;;7.20;3.47;;;16.40;99.90;;;;;;4957466;28;20193;-75
2023/05/24 07:22:00;;;;;;;7.40;3.13;;;16.40;99.90;;;;;;4957830;28;20204;-75
2023/05/24 07:24:31;;;;;;;7.00;2.90;;;16.30;99.90;;;;;;4956965;28;20293;-75
2023/05/24 07:27:02;;;;;;;8.05;2.90;;;16.20;99.90;;;;;;4957081;28;20227;-75
2023/05/24 07:29:33;;;;;;;7.15;2.67;;;16.10;99.90;;;;;;4957069;28;20216;-74
2023/05/24 07:32:04;;;;;;;8.32;2.70;;;16.10;99.90;;;;;;4957341;28;20193;-75
2023/05/24 07:34:38;;;;;;;6.30;2.63;;;16.00;99.90;;;;;;4956332;28;20208;-75
2023/05/24 07:37:09;;;;;;;7.57;3.20;;;15.90;99.90;;;;;;4951372;28;20698;-75
2023/05/24 07:39:41;;;;;;;9.30;3.53;;;15.80;99.90;;;;;;4957281;28;20193;-75
2023/05/24 07:42:12;;;;;;;7.93;3.30;;;15.80;99.90;;;;;;4956940;28;20228;-75
2023/05/24 07:44:43;;;;;;;7.03;3.28;;;15.70;99.90;;;;;;4956564;28;20201;-74
2023/05/24 07:47:14;;;;;;;6.57;3.30;;;15.70;99.90;;;;;;4956182;28;20201;-75
2023/05/24 07:49:48;;;;;;;7.30;3.72;;;15.70;99.90;;;;;;4955835;28;20252;-75
2023/05/24 07:52:19;;;;;;;8.77;3.28;;;15.60;99.90;;;;;;4957002;28;20216;-74
2023/05/24 07:54:50;;;;;;;9.07;3.60;;;15.50;99.90;;;;;;4955459;28;20712;-74
2023/05/24 07:57:21;;;;;;;10.05;4.40;;;15.50;99.90;;;;;;4956916;28;20197;-75
2023/05/24 07:59:52;;;;;;;8.68;4.28;;;15.40;99.90;;;;;;4959406;28;20281;-75
2023/05/24 08:02:23;;;;;;;8.88;4.22;;;15.30;99.90;;;;;;4956886;28;20323;-74
2023/05/24 08:04:57;;;;;;;9.95;4.38;;;15.20;99.90;;;;;;4953854;28;20284;-75
2023/05/24 08:07:28;;;;;;;8.25;4.28;;;15.30;99.90;;;;;;4956452;28;20570;-75
2023/05/24 08:09:59;;;;;;;7.53;3.85;;;15.20;99.90;;;;;;4954732;28;20220;-75
2023/05/24 08:12:31;;;;;;;8.05;3.90;;;15.20;99.90;;;;;;4954481;28;20606;-75
2023/05/24 08:15:02;;;;;;;6.25;3.83;;;15.20;99.90;;;;;;4954116;28;20244;-74
2023/05/24 08:17:33;;;;;;;10.00;4.53;;;15.10;99.90;;;;;;4955664;28;20240;-75
2023/05/24 08:20:08;;;;;;;12.05;5.78;;;15.10;99.90;;;;;;4956167;28;20208;-75
2023/05/24 08:22:39;;;;;;;7.78;5.10;;;15.00;99.90;;;;;;4955165;28;20200;-75
2023/05/24 08:25:11;;;;;;;9.98;4.35;;;14.90;99.90;;;;;;4957148;28;20671;-75
2023/05/24 08:27:42;;;;;;;8.80;3.70;;;14.90;99.90;;;;;;4952571;29;20201;-74
2023/05/24 08:30:13;;;;;;;8.52;3.67;;;14.80;99.90;;;;;;4953751;28;20231;-74
2023/05/24 08:32:44;;;;;;;8.50;3.40;;;14.80;99.90;;;;;;4954416;28;20205;-74
2023/05/24 08:35:17;;;;;;;6.78;3.35;;;14.70;99.90;;;;;;4954153;28;20201;-74
2023/05/24 08:37:48;;;;;;;7.43;3.40;;;14.70;99.90;;;;;;4954193;28;20596;-74
2023/05/24 08:40:20;;;;;;;11.50;4.07;;;14.70;99.90;;;;;;4954006;28;20213;-75
2023/05/24 08:42:54;;;;;;;8.40;4.10;;;14.60;99.90;;;;;;4955213;28;20201;-74
2023/05/24 08:45:27;;;;;;;9.85;4.45;;;14.60;99.90;;;;;;4954052;28;20640;-74
2023/05/24 08:47:59;;;;;;;6.47;4.13;;;14.60;99.90;;;;;;4954371;28;20576;-74
2023/05/24 08:50:32;;;;;;;7.93;4.53;;;14.50;99.90;;;;;;4954048;28;20276;-75
2023/05/24 08:53:06;;;;;;;8.18;4.65;;;14.40;99.90;;;;;;4953109;28;20195;-74
2023/05/24 08:55:38;;;;;;;9.60;4.38;;;14.40;99.90;;;;;;4951441;28;20207;-74
2023/05/24 08:58:09;;;;;;;8.88;4.18;;;14.40;99.90;;;;;;4955543;28;20208;-74
2023/05/24 09:00:40;;;;;;;7.97;4.03;;;14.30;99.90;;;;;;4949392;28;20567;-74
2023/05/24 09:03:13;;;;;;;7.15;4.00;;;14.30;99.90;;;;;;4955099;28;20196;-75
2023/05/24 09:05:47;;;;;;;7.25;3.60;;;14.20;99.90;;;;;;4953077;28;20201;-74
2023/05/24 09:08:19;;;;;;;7.97;3.72;;;14.30;99.90;;;;;;4953429;28;20660;-74
2023/05/24 09:10:51;;;;;;;9.40;4.20;;;14.30;99.90;;;;;;4952006;28;21215;-74
2023/05/24 09:13:24;;;;;;;7.13;3.72;;;14.20;99.90;;;;;;4953627;28;20201;-74
2023/05/24 09:15:55;;;;;;;7.10;3.53;;;14.20;99.90;;;;;;4949092;28;20291;-74
2023/05/24 09:18:26;;;;;;;8.20;3.40;;;14.20;99.90;;;;;;4953074;28;20200;-74
2023/05/24 09:20:59;;;;;;;8.65;3.65;;;14.20;99.90;;;;;;4953997;28;20197;-74
2023/05/24 09:23:31;;;;;;;7.53;3.78;;;14.20;99.90;;;;;;4947653;28;20568;-74
2023/05/24 09:26:10;;;;;;;10.13;4.00;;;14.10;99.90;;;;;;4955329;28;20197;-74
2023/05/24 09:28:43;;;;;;;9.45;4.50;;;14.10;99.90;;;;;;4953838;28;20197;-74
2023/05/24 09:31:16;;;;;;;14.45;4.72;;;14.10;99.90;;;;;;4952742;28;20208;-75
2023/05/24 09:33:51;;;;;;;7.97;3.95;;;14.00;99.90;;;;;;4947151;28;20201;-74
2023/05/24 09:36:25;;;;;;;7.90;4.10;;;14.00;99.90;;;;;;4953304;28;20210;-75
2023/05/24 09:39:10;;;;;;;11.25;5.00;;;14.00;99.90;;;;;;4954158;28;20197;-74
2023/05/24 09:41:45;;;;;;;12.80;4.88;;;14.00;99.90;;;;;;4952619;29;20572;-74
2023/05/24 09:44:17;;;;;;;8.55;4.75;;;14.00;99.90;;;;;;4951268;29;20200;-74
2023/05/24 09:46:48;;;;;;;11.43;5.68;;;13.90;99.90;;;;;;4949432;28;20196;-74
2023/05/24 09:49:22;;;;;;;13.23;5.03;;;13.90;99.90;;;;;;4954072;28;20234;-74
2023/05/24 09:51:55;;;;;;;12.13;5.43;;;13.90;99.90;;;;;;4956821;28;20319;-73
2023/05/24 09:54:27;;;;;;;9.98;5.28;;;13.90;99.90;;;;;;4955464;28;20208;-74
2023/05/24 09:56:58;;;;;;;11.02;5.18;;;13.80;99.90;;;;;;4944154;28;20333;-74
2023/05/24 09:59:29;;;;;;;11.63;5.32;;;13.80;99.90;;;;;;4953827;28;20204;-74
2023/05/24 10:02:11;;;;;;;12.65;6.03;;;13.70;99.90;;;;;;4952518;28;20236;-73
2023/05/24 10:04:42;;;;;;;11.88;5.72;;;13.70;99.90;;;;;;4959378;28;20220;-74
2023/05/24 10:07:17;;;;;;;9.63;5.60;;;13.60;99.90;;;;;;4953394;28;20215;-73
2023/05/24 10:09:49;;;;;;;10.38;5.50;;;13.60;99.90;;;;;;4952512;28;20287;-73
2023/05/24 10:12:23;;;;;;;13.23;5.70;;;13.60;99.90;;;;;;4953993;28;20219;-73
2023/05/24 10:14:56;;;;;;;10.85;5.78;;;13.60;99.90;;;;;;4957763;28;20220;-74
2023/05/24 10:17:28;;;;;;;11.45;5.28;;;13.60;99.90;;;;;;4956913;28;20228;-74
2023/05/24 10:19:59;;;;;;;10.35;5.15;;;13.60;99.90;;;;;;4958907;28;20715;-74
2023/05/24 10:22:33;;;;;;;11.82;5.35;;;13.60;99.90;;;;;;4958452;28;20232;-74
2023/05/24 10:25:06;;;;;;;11.60;5.00;;;13.60;99.90;;;;;;4957154;28;20231;-74
2023/05/24 10:27:37;;;;;;;12.13;5.70;;;13.60;99.90;;;;;;4956093;28;20379;-74
2023/05/24 10:30:16;;;;;;;9.38;5.05;;;13.60;99.90;;;;;;4956577;28;20226;-74
2023/05/24 10:32:49;;;;;;;10.13;5.43;;;13.50;99.90;;;;;;4957853;28;20570;-74
2023/05/24 10:35:22;;;;;;;8.30;5.22;;;13.50;99.90;;;;;;4957885;28;20296;-74
2023/05/24 10:37:56;;;;;;;10.10;5.30;;;13.50;99.90;;;;;;4956463;28;20196;-74
2023/05/24 10:40:27;;;;;;;8.90;5.05;;;13.50;99.90;;;;;;4951961;28;20200;-74
2023/05/24 10:42:59;;;;;;;11.38;5.75;;;13.50;99.90;;;;;;4957593;28;20204;-73
2023/05/24 10:45:39;;;;;;;10.57;5.40;;;13.40;99.90;;;;;;4947686;29;20292;-74
2023/05/24 10:48:38;;;;;;;10.77;5.55;;;13.40;99.90;;;;;;4957812;28;20289;-73
2023/05/24 10:51:37;;;;;;;12.38;5.55;;;13.40;99.90;;;;;;4953332;29;20711;-74
2023/05/24 10:54:28;;;;;;;11.93;5.63;;;13.40;99.90;;;;;;4957315;28;20566;-74
2023/05/24 10:57:05;;;;;;;12.65;5.85;;;13.30;99.90;;;;;;4955256;28;20208;-74
2023/05/24 10:59:38;;;;;;;11.38;5.75;;;13.30;99.90;;;;;;4955390;28;20667;-74
2023/05/24 11:02:12;;;;;;;12.38;6.22;;;13.20;99.90;;;;;;4957398;28;20232;-74
2023/05/24 11:04:44;;;;;;;12.00;6.40;;;13.20;99.90;;;;;;4957649;28;20389;-74
2023/05/24 11:07:18;;;;;;;13.98;6.25;;;13.20;99.90;;;;;;4956877;28;20206;-73
2023/05/24 11:09:56;;;;;;;13.38;6.38;;;13.10;99.90;;;;;;4956004;28;20221;-74
2023/05/24 11:12:37;;;;;;;8.50;5.60;;;13.10;99.90;;;;;;4957342;28;20227;-74
2023/05/24 11:15:12;;;;;;;11.35;5.78;;;13.10;99.90;;;;;;4957063;28;20221;-74
2023/05/24 11:18:16;;;;;;;15.75;6.53;;;13.10;99.90;;;;;;4956878;28;20315;-74
2023/05/24 11:20:49;;;;;;;11.10;5.55;;;13.10;99.90;;;;;;4957219;29;20209;-74
2023/05/24 11:23:21;;;;;;;9.88;5.50;;;13.00;99.90;;;;;;4955862;28;20201;-74
2023/05/24 11:25:54;;;;;;;12.20;5.80;;;13.00;99.90;;;;;;4957029;28;20201;-74
2023/05/24 11:28:25;;;;;;;9.32;4.95;;;13.00;99.90;;;;;;4956119;29;20216;-74
2023/05/24 11:30:56;;;;;;;13.70;5.45;;;13.00;99.90;;;;;;4957193;28;20715;-73
2023/05/24 11:33:28;;;;;;;10.27;5.25;;;13.00;99.90;;;;;;4957618;28;20562;-73
2023/05/24 11:35:59;;;;;;;9.35;5.20;;;13.00;99.90;;;;;;4941989;28;20203;-74
2023/05/24 11:38:30;;;;;;;12.15;5.70;;;13.00;99.90;;;;;;4938109;29;20204;-73
2023/05/24 11:41:03;;;;;;;14.00;5.82;;;12.90;99.90;;;;;;4951995;29;20792;-74
2023/05/24 11:43:34;;;;;;;13.40;5.95;;;12.90;99.90;;;;;;4957174;28;20189;-74
2023/05/24 11:46:06;;;;;;;11.70;5.60;;;12.90;99.90;;;;;;4947351;28;20190;-74
2023/05/24 11:48:37;;;;;;;12.18;5.90;;;12.80;99.90;;;;;;4938011;29;20256;-74
2023/05/24 11:51:08;;;;;;;13.27;6.07;;;12.80;99.90;;;;;;4937779;29;20228;-73
2023/05/24 11:53:39;;;;;;;11.98;6.57;;;12.80;99.90;;;;;;4940397;29;20197;-74
2023/05/24 11:56:12;;;;;;;13.45;6.40;;;12.80;99.90;;;;;;4956768;28;20199;-73
2023/05/24 11:58:50;;;;;;;14.95;7.35;;;12.80;99.90;;;;;;4955889;28;20200;-74
2023/05/24 12:01:28;;;;;;;16.23;7.50;;;12.80;99.90;;;;;;4956777;28;20221;-73
2023/05/24 12:03:59;;;;;;;14.43;7.15;;;12.70;99.90;;;;;;4956229;28;20203;-74
2023/05/24 12:06:38;;;;;;;14.80;7.35;;;12.70;99.90;;;;;;4955938;28;20201;-74
2023/05/24 12:09:10;;;;;;;11.38;6.65;;;12.70;99.90;;;;;;4951446;28;20217;-73
2023/05/24 12:11:46;;;;;;;14.27;7.25;;;12.70;99.90;;;;;;4955561;28;20283;-74
2023/05/24 12:14:18;;;;;;;17.08;7.50;;;12.70;99.90;;;;;;4955131;28;20250;-73
2023/05/24 12:16:49;;;;;;;16.20;8.20;;;12.60;99.90;;;;;;4951173;28;20258;-73
2023/05/24 12:19:21;;;;;;;15.15;8.60;;;12.60;99.90;;;;;;4955795;28;20201;-73
2023/05/24 12:21:52;;;;;;;14.90;8.32;;;12.60;99.90;;;;;;4955941;28;20244;-74
2023/05/24 12:24:24;;;;;;;16.73;8.95;;;12.60;99.90;;;;;;4952354;28;20212;-73
2023/05/24 12:27:05;;;;;;;15.45;8.20;;;12.60;99.90;;;;;;4956198;28;20535;-74
2023/05/24 12:29:41;;;;;;;17.42;8.82;;;12.60;99.90;;;;;;4951600;29;20292;-74
2023/05/24 12:32:13;;;;;;;19.33;8.20;;;12.50;99.90;;;;;;4955706;28;20628;-73
2023/05/24 12:34:44;;;;;;;17.85;9.15;;;12.50;99.90;;;;;;4955378;28;20633;-73
2023/05/24 12:37:17;;;;;;;13.80;8.30;;;12.50;99.90;;;;;;4955149;28;20200;-73
2023/05/24 12:39:48;;;;;;;17.30;8.40;;;12.40;99.90;;;;;;4955539;28;20208;-73
2023/05/24 12:42:22;;;;;;;17.63;8.57;;;12.40;99.90;;;;;;4955020;28;20211;-73
2023/05/24 12:44:54;;;;;;;16.70;8.23;;;12.30;99.90;;;;;;4950126;29;20628;-74
2023/05/24 12:47:25;;;;;;;14.10;8.88;;;12.30;99.90;;;;;;4955100;28;20201;-73
2023/05/24 12:49:57;;;;;;;17.80;8.98;;;12.30;99.90;;;;;;4955018;28;20217;-73
2023/05/24 12:52:28;;;;;;;17.23;8.95;;;12.30;99.90;;;;;;4955313;28;20212;-73
2023/05/24 12:54:59;;;;;;;19.05;8.50;;;12.20;99.90;;;;;;4954863;28;20204;-74
2023/05/24 12:57:32;;;;;;;16.05;8.70;;;12.20;99.90;;;;;;4955651;28;20197;-73
2023/05/24 13:00:04;;;;;;;16.17;7.82;;;12.20;99.90;;;;;;4955098;28;20595;-73
2023/05/24 13:02:35;;;;;;;15.38;8.25;;;12.20;99.90;;;;;;4955488;28;20280;-74
2023/05/24 13:05:07;;;;;;;17.92;8.40;;;12.10;99.90;;;;;;4955133;28;20193;-73
2023/05/24 13:07:38;;;;;;;13.00;7.65;;;12.10;99.90;;;;;;4955721;28;20567;-74
2023/05/24 13:10:09;;;;;;;12.30;7.22;;;12.10;99.90;;;;;;4953495;28;20217;-74
2023/05/24 13:12:42;;;;;;;15.75;7.57;;;12.10;99.90;;;;;;4947409;28;20201;-73
2023/05/24 13:15:14;;;;;;;14.68;7.63;;;12.00;99.90;;;;;;4953988;28;20225;-74
2023/05/24 13:17:45;;;;;;;12.30;7.35;;;12.00;99.90;;;;;;4936441;29;20233;-73